Time;durP1;ratioP1;P1;durP2;ratioP2;P2;SDS_P1;SDS_P2;PMS_P1;PMS_P2;Temp;Humidity;BMP_temperature;BMP_pressure;BME280_temperature;BME280_humidity;BME280_pressure;Samples;Min_cycle;Max_cycle;Signal;HPM_P1;HPM_P2
2024/01/25 00:01:45;;;;;;;40.67;8.48;;;;;;;7.53;100.00;102763.06;5019182;28;20120;-64
2024/01/25 00:04:11;;;;;;;43.70;8.32;;;;;;;7.52;100.00;102774.53;5018630;28;20471;-65
2024/01/25 00:06:36;;;;;;;46.35;8.57;;;;;;;7.50;100.00;102777.25;5019324;28;20095;-64
2024/01/25 00:09:02;;;;;;;36.33;7.90;;;;;;;7.49;100.00;102770.22;5020995;28;20363;-64
2024/01/25 00:11:31;;;;;;;34.28;8.20;;;;;;;7.48;100.00;102767.66;5019618;28;20018;-64
2024/01/25 00:13:56;;;;;;;36.83;7.60;;;;;;;7.47;100.00;102766.75;5015719;28;20033;-64
2024/01/25 00:16:21;;;;;;;32.90;8.80;;;;;;;7.44;100.00;102761.56;5018420;28;20026;-64
2024/01/25 00:18:47;;;;;;;41.90;9.25;;;;;;;7.42;100.00;102763.41;5025963;28;20052;-64
2024/01/25 00:21:12;;;;;;;41.38;8.27;;;;;;;7.40;100.00;102763.44;5022937;28;20034;-64
2024/01/25 00:23:37;;;;;;;40.38;8.38;;;;;;;7.38;100.00;102759.16;5020166;28;20168;-64
2024/01/25 00:26:02;;;;;;;35.00;8.60;;;;;;;7.34;100.00;102755.72;5021156;28;20022;-64
2024/01/25 00:28:28;;;;;;;40.38;8.13;;;;;;;7.31;100.00;102761.13;5023354;28;20028;-65
2024/01/25 00:30:54;;;;;;;43.70;8.43;;;;;;;7.30;100.00;102780.53;5021799;28;20025;-65
2024/01/25 00:33:19;;;;;;;40.63;7.85;;;;;;;7.28;100.00;102778.81;5020761;28;20431;-65
2024/01/25 00:35:45;;;;;;;37.25;7.30;;;;;;;7.26;100.00;102772.72;5021465;28;20041;-65
2024/01/25 00:38:10;;;;;;;38.65;8.52;;;;;;;7.20;100.00;102757.94;5026650;28;20025;-65
2024/01/25 00:40:36;;;;;;;41.33;8.60;;;;;;;7.17;100.00;102758.03;5019955;28;20038;-65
2024/01/25 00:43:01;;;;;;;43.97;9.07;;;;;;;7.14;100.00;102761.63;5023092;28;20038;-65
2024/01/25 00:45:27;;;;;;;37.95;8.43;;;;;;;7.11;100.00;102764.41;5022251;28;20091;-65
2024/01/25 00:47:52;;;;;;;44.90;8.90;;;;;;;7.07;100.00;102760.09;5025421;28;20053;-65
2024/01/25 00:50:23;;;;;;;41.00;7.70;;;;;;;7.04;100.00;102755.78;5021684;28;20026;-65
2024/01/25 00:52:49;;;;;;;44.55;8.40;;;;;;;7.03;100.00;102764.63;5017710;28;20026;-65
2024/01/25 00:55:15;;;;;;;43.33;8.95;;;;;;;7.01;100.00;102760.28;5018191;28;20041;-65
2024/01/25 00:57:40;;;;;;;39.15;8.10;;;;;;;6.99;100.00;102772.69;5023281;28;20380;-65
2024/01/25 01:00:08;;;;;;;41.20;8.85;;;;;;;6.95;100.00;102777.19;5017330;28;20050;-65
2024/01/25 01:02:36;;;;;;;39.78;8.20;;;;;;;6.92;100.00;102781.72;5021544;28;20037;-65
2024/01/25 01:05:02;;;;;;;43.75;8.60;;;;;;;6.90;100.00;102771.19;5022501;28;20131;-65
2024/01/25 01:07:27;;;;;;;37.65;7.53;;;;;;;6.88;100.00;102770.38;5024546;28;20065;-65
2024/01/25 01:09:53;;;;;;;49.17;8.38;;;;;;;6.84;100.00;102771.38;5022506;28;20032;-65
2024/01/25 01:12:18;;;;;;;45.42;8.20;;;;;;;6.82;100.00;102775.84;5023197;28;20069;-65
2024/01/25 01:14:43;;;;;;;43.25;8.85;;;;;;;6.79;100.00;102774.13;5016742;28;20026;-65
2024/01/25 01:17:09;;;;;;;43.63;9.52;;;;;;;6.77;100.00;102775.13;5023614;28;20029;-65
2024/01/25 01:19:34;;;;;;;41.40;8.43;;;;;;;6.75;100.00;102769.00;5019884;28;20045;-65
2024/01/25 01:22:00;;;;;;;40.80;8.63;;;;;;;6.74;100.00;102780.47;5022310;28;20029;-65
2024/01/25 01:24:25;;;;;;;43.72;8.65;;;;;;;6.70;100.00;102781.50;5020020;28;20076;-65
2024/01/25 01:26:50;;;;;;;36.03;7.82;;;;;;;6.69;100.00;102785.03;5020830;28;20368;-65
2024/01/25 01:29:16;;;;;;;44.33;8.85;;;;;;;6.67;100.00;102790.34;5019849;28;20116;-65
2024/01/25 01:31:41;;;;;;;37.80;8.38;;;;;;;6.63;100.00;102786.09;5024319;28;20040;-65
2024/01/25 01:34:07;;;;;;;39.92;7.80;;;;;;;6.62;100.00;102785.19;5023890;28;20466;-65
2024/01/25 01:36:32;;;;;;;44.92;9.18;;;;;;;6.57;100.00;102787.09;5021593;28;20065;-65
2024/01/25 01:38:57;;;;;;;46.75;8.68;;;;;;;6.53;100.00;102788.13;5020471;28;20026;-65
2024/01/25 01:41:23;;;;;;;37.50;7.72;;;;;;;6.52;100.00;102798.72;5020758;28;20041;-65
2024/01/25 01:43:52;;;;;;;37.40;7.70;;;;;;;6.51;100.00;102791.69;5020972;28;20080;-65
2024/01/25 01:46:40;;;;;;;45.03;9.50;;;;;;;6.50;100.00;102784.72;5022697;28;20486;-65
2024/01/25 01:49:08;;;;;;;38.65;8.43;;;;;;;6.41;100.00;102797.25;5054615;28;20441;-65
2024/01/25 01:51:34;;;;;;;43.95;9.63;;;;;;;6.39;100.00;102804.31;5018241;28;20072;-65
2024/01/25 01:54:03;;;;;;;44.38;8.75;;;;;;;6.37;100.00;102808.78;5020913;28;20073;-65
2024/01/25 01:56:29;;;;;;;51.92;10.25;;;;;;;6.34;100.00;102798.31;5014195;28;20031;-65
2024/01/25 01:58:57;;;;;;;43.65;8.55;;;;;;;6.30;100.00;102818.63;5014327;28;20046;-65
2024/01/25 02:01:24;;;;;;;47.17;9.25;;;;;;;6.29;100.00;102830.13;5012801;28;20030;-65
2024/01/25 02:03:49;;;;;;;37.47;8.07;;;;;;;6.26;100.00;102826.69;5022626;28;20105;-65
2024/01/25 02:06:15;;;;;;;40.10;8.63;;;;;;;6.24;100.00;102828.50;5020590;28;20550;-65
2024/01/25 02:08:40;;;;;;;44.58;8.93;;;;;;;6.20;100.00;102838.28;5017655;28;20034;-65
2024/01/25 02:11:06;;;;;;;44.28;8.23;;;;;;;6.17;100.00;102829.56;5020113;28;20025;-65
2024/01/25 02:13:31;;;;;;;49.75;8.68;;;;;;;6.15;100.00;102823.47;5018045;28;20037;-65
2024/01/25 02:15:56;;;;;;;40.55;8.38;;;;;;;6.13;100.00;102826.16;5019807;28;20560;-65
2024/01/25 02:18:22;;;;;;;44.78;8.50;;;;;;;6.11;100.00;102844.66;5020633;28;20030;-65
2024/01/25 02:20:47;;;;;;;37.03;8.35;;;;;;;6.07;100.00;102850.91;5022820;28;20025;-65
2024/01/25 02:23:12;;;;;;;48.00;8.68;;;;;;;6.06;100.00;102862.38;5022227;28;20057;-65
2024/01/25 02:25:37;;;;;;;44.58;8.38;;;;;;;6.02;100.00;102863.34;5019540;28;20032;-65
2024/01/25 02:28:03;;;;;;;37.58;8.10;;;;;;;5.97;100.00;102859.97;5021948;28;20041;-65
2024/01/25 02:30:28;;;;;;;44.15;10.38;;;;;;;5.96;100.00;102865.22;5018410;28;20378;-65
2024/01/25 02:32:54;;;;;;;41.60;8.38;;;;;;;5.93;100.00;102863.56;5019833;28;20033;-65
2024/01/25 02:35:19;;;;;;;42.47;8.15;;;;;;;5.86;100.00;102865.47;5021874;28;20088;-64
2024/01/25 02:37:44;;;;;;;48.05;8.63;;;;;;;5.85;100.00;102866.38;5021423;28;20031;-65
2024/01/25 02:40:10;;;;;;;42.90;8.43;;;;;;;5.81;100.00;102867.38;5020715;28;20029;-65
2024/01/25 02:42:36;;;;;;;51.55;9.77;;;;;;;5.79;100.00;102863.88;5020475;28;20113;-65
2024/01/25 02:45:01;;;;;;;38.47;7.40;;;;;;;5.75;100.00;102865.72;5022904;28;20083;-65
2024/01/25 02:47:26;;;;;;;42.00;7.82;;;;;;;5.73;100.00;102869.31;5015195;28;20029;-65
2024/01/25 02:49:51;;;;;;;39.47;8.50;;;;;;;5.70;100.00;102869.38;5021256;28;20091;-65
2024/01/25 02:52:17;;;;;;;34.78;7.68;;;;;;;5.67;100.00;102864.19;5018975;28;20108;-65
2024/01/25 02:54:42;;;;;;;36.80;7.95;;;;;;;5.63;100.00;102863.38;5017728;28;20087;-64
2024/01/25 02:57:07;;;;;;;32.65;7.70;;;;;;;5.59;100.00;102863.50;5021367;28;20375;-65
2024/01/25 02:59:33;;;;;;;46.13;8.05;;;;;;;5.56;100.00;102867.03;5019244;28;20399;-65
2024/01/25 03:01:58;;;;;;;37.28;7.93;;;;;;;5.52;100.00;102862.75;5016427;28;20118;-64
2024/01/25 03:04:23;;;;;;;43.55;7.75;;;;;;;5.49;100.00;102860.19;5020206;28;20029;-64
2024/01/25 03:06:49;;;;;;;44.38;8.15;;;;;;;5.45;100.00;102855.91;5018117;28;20029;-65
2024/01/25 03:09:14;;;;;;;40.92;8.55;;;;;;;5.42;100.00;102855.97;5020366;28;20037;-65
2024/01/25 03:11:40;;;;;;;33.40;7.53;;;;;;;5.38;100.00;102855.19;5021646;28;20041;-65
2024/01/25 03:14:05;;;;;;;39.65;8.23;;;;;;;5.34;100.00;102854.34;5020301;28;20021;-64
2024/01/25 03:16:30;;;;;;;35.38;7.68;;;;;;;5.32;100.00;102850.88;5014952;28;20527;-65
2024/01/25 03:18:56;;;;;;;43.53;8.00;;;;;;;5.29;100.00;102855.38;5019849;28;20510;-65
2024/01/25 03:21:21;;;;;;;30.08;7.00;;;;;;;5.27;100.00;102855.41;5017734;28;20747;-65
2024/01/25 03:23:46;;;;;;;33.75;7.13;;;;;;;5.25;100.00;102851.94;5021047;28;20028;-65
2024/01/25 03:26:11;;;;;;;41.85;8.00;;;;;;;5.22;100.00;102849.38;5018817;28;20021;-65
2024/01/25 03:28:39;;;;;;;34.83;7.40;;;;;;;5.21;100.00;102849.41;5019331;28;20077;-65
2024/01/25 03:31:04;;;;;;;35.38;7.20;;;;;;;5.17;100.00;102851.22;5018561;28;20032;-65
2024/01/25 03:33:32;;;;;;;31.75;6.90;;;;;;;5.15;100.00;102856.53;5018872;28;20022;-65
2024/01/25 03:35:57;;;;;;;33.38;7.63;;;;;;;5.10;100.00;102858.41;5015150;28;20029;-65
2024/01/25 03:38:22;;;;;;;42.28;8.20;;;;;;;5.06;100.00;102861.13;5021931;28;20117;-65
2024/01/25 03:40:48;;;;;;;36.47;7.50;;;;;;;5.03;100.00;102859.44;5015532;28;20117;-65
2024/01/25 03:43:13;;;;;;;39.42;8.05;;;;;;;5.01;100.00;102863.84;5018142;28;20478;-65
2024/01/25 03:45:38;;;;;;;31.38;7.00;;;;;;;4.99;100.00;102863.88;5015439;28;20030;-65
2024/01/25 03:48:04;;;;;;;37.10;7.18;;;;;;;4.97;100.00;102867.47;5017888;28;20057;-65
2024/01/25 03:50:29;;;;;;;34.28;6.75;;;;;;;4.96;100.00;102869.22;5016031;28;20476;-65
2024/01/25 03:52:55;;;;;;;35.03;7.88;;;;;;;4.93;100.00;102868.41;5021987;28;20032;-65
2024/01/25 03:55:20;;;;;;;36.92;7.05;;;;;;;4.93;100.00;102865.78;5015896;28;20534;-64
2024/01/25 03:57:45;;;;;;;34.55;7.55;;;;;;;4.90;100.00;102868.50;5020189;28;20025;-64
2024/01/25 04:00:11;;;;;;;30.58;7.10;;;;;;;4.87;100.00;102871.19;5019356;28;20088;-65
2024/01/25 04:02:36;;;;;;;31.75;7.35;;;;;;;4.87;100.00;102865.91;5016353;28;20034;-65
2024/01/25 04:05:02;;;;;;;34.25;7.53;;;;;;;4.85;100.00;102867.72;5016217;28;20061;-64
2024/01/25 04:07:27;;;;;;;41.67;7.28;;;;;;;4.83;100.00;102865.13;5016555;28;20383;-65
2024/01/25 04:09:53;;;;;;;40.38;6.88;;;;;;;4.81;100.00;102862.50;5018690;28;20469;-65
2024/01/25 04:12:18;;;;;;;39.53;8.25;;;;;;;4.80;100.00;102875.72;5019150;28;20479;-65
2024/01/25 04:14:43;;;;;;;37.90;6.93;;;;;;;4.78;100.00;102880.09;5014948;28;20116;-64
2024/01/25 04:17:09;;;;;;;36.42;7.50;;;;;;;4.75;100.00;102870.53;5019283;28;20030;-64
2024/01/25 04:19:35;;;;;;;41.28;8.40;;;;;;;4.73;100.00;102871.44;5016524;28;20116;-65
2024/01/25 04:22:01;;;;;;;41.25;7.65;;;;;;;4.70;100.00;102882.06;5019426;28;20040;-64
2024/01/25 04:24:26;;;;;;;32.30;7.47;;;;;;;4.69;100.00;102889.06;5017598;28;20033;-65
2024/01/25 04:26:51;;;;;;;37.80;7.57;;;;;;;4.68;100.00;102878.56;5017529;28;20026;-64
2024/01/25 04:29:17;;;;;;;34.65;6.75;;;;;;;4.66;100.00;102880.34;5016360;28;20041;-65
2024/01/25 04:31:44;;;;;;;37.33;7.00;;;;;;;4.60;100.00;102871.69;5018718;28;20036;-64
2024/01/25 04:34:10;;;;;;;27.17;6.45;;;;;;;4.59;100.00;102871.72;5017818;28;20049;-64
2024/01/25 04:36:35;;;;;;;39.10;7.43;;;;;;;4.57;100.00;102876.13;5014187;28;20072;-64
2024/01/25 04:39:00;;;;;;;42.38;8.40;;;;;;;4.56;100.00;102877.91;5018717;28;20041;-65
2024/01/25 04:41:26;;;;;;;41.40;8.68;;;;;;;4.54;100.00;102869.16;5017256;28;20379;-64
2024/01/25 04:43:51;;;;;;;31.40;6.63;;;;;;;4.50;100.00;102869.25;5017361;28;20104;-64
2024/01/25 04:46:16;;;;;;;38.67;7.78;;;;;;;4.49;100.00;102859.63;5015795;28;20108;-64
2024/01/25 04:48:41;;;;;;;34.22;7.13;;;;;;;4.45;100.00;102867.56;5017638;28;20029;-65
2024/01/25 04:51:07;;;;;;;44.80;8.23;;;;;;;4.41;100.00;102868.53;5017951;28;20372;-64
2024/01/25 04:53:32;;;;;;;34.25;8.48;;;;;;;4.40;100.00;102858.91;5019980;28;20465;-65
2024/01/25 04:55:59;;;;;;;35.20;7.80;;;;;;;4.37;100.00;102860.72;5015196;28;20033;-64
2024/01/25 04:58:25;;;;;;;37.00;7.97;;;;;;;4.32;100.00;102868.69;5016977;28;20064;-64
2024/01/25 05:00:50;;;;;;;43.78;7.78;;;;;;;4.31;100.00;102866.09;5014885;28;20115;-64
2024/01/25 05:03:15;;;;;;;34.80;7.15;;;;;;;4.26;100.00;102864.41;5018723;28;20022;-64
2024/01/25 05:05:41;;;;;;;37.97;7.60;;;;;;;4.22;100.00;102865.34;5021830;28;20030;-64
2024/01/25 05:08:06;;;;;;;33.28;7.32;;;;;;;4.24;100.00;102873.22;5016257;28;20040;-64
2024/01/25 05:10:32;;;;;;;36.50;6.70;;;;;;;4.22;100.00;102875.00;5022947;28;20033;-64
2024/01/25 05:12:57;;;;;;;37.35;7.50;;;;;;;4.19;100.00;102864.53;5021249;28;20084;-65
2024/01/25 05:15:22;;;;;;;37.55;7.35;;;;;;;4.18;100.00;102865.41;5019546;28;20025;-64
2024/01/25 05:17:47;;;;;;;35.53;7.35;;;;;;;4.13;100.00;102855.00;5023217;28;20399;-65
2024/01/25 05:20:15;;;;;;;30.13;6.68;;;;;;;4.12;100.00;102861.16;5021690;28;20056;-65
2024/01/25 05:22:41;;;;;;;31.90;6.53;;;;;;;4.05;100.00;102849.00;5021000;28;20034;-64
2024/01/25 05:25:08;;;;;;;31.73;6.97;;;;;;;4.02;100.00;102844.66;5018285;28;20072;-64
2024/01/25 05:27:33;;;;;;;30.10;7.45;;;;;;;3.99;100.00;102849.97;5022657;28;20029;-64
2024/01/25 05:29:59;;;;;;;42.08;8.35;;;;;;;3.95;100.00;102858.81;5020771;28;20079;-65
2024/01/25 05:32:24;;;;;;;31.58;7.32;;;;;;;3.93;100.00;102860.59;5021024;28;20474;-64
2024/01/25 05:34:49;;;;;;;42.55;7.80;;;;;;;3.95;100.00;102873.72;5022739;28;20030;-64
2024/01/25 05:37:14;;;;;;;38.85;7.72;;;;;;;3.91;100.00;102878.13;5021171;28;20029;-65
2024/01/25 05:39:40;;;;;;;34.83;8.02;;;;;;;3.88;100.00;102875.53;5010817;28;20030;-64
2024/01/25 05:42:05;;;;;;;38.13;7.30;;;;;;;3.85;100.00;102858.09;5022533;28;20088;-65
2024/01/25 05:44:30;;;;;;;34.28;7.05;;;;;;;3.82;100.00;102873.91;5019431;28;20108;-64
2024/01/25 05:46:56;;;;;;;39.15;7.40;;;;;;;3.80;100.00;102875.69;5019919;28;20509;-65
2024/01/25 05:49:21;;;;;;;31.45;6.97;;;;;;;3.77;100.00;102874.88;5017252;28;20033;-65
2024/01/25 05:51:46;;;;;;;38.15;6.90;;;;;;;3.73;100.00;102870.53;5019420;28;20048;-65
2024/01/25 05:54:12;;;;;;;31.95;7.65;;;;;;;3.69;100.00;102873.22;5022122;28;20142;-64
2024/01/25 05:56:37;;;;;;;38.05;8.15;;;;;;;3.68;100.00;102886.38;5018802;28;20100;-64
2024/01/25 05:59:02;;;;;;;34.95;8.25;;;;;;;3.68;100.00;102891.63;5023004;28;20122;-64
2024/01/25 06:01:27;;;;;;;40.08;7.75;;;;;;;3.66;100.00;102890.78;5022869;28;20494;-64
2024/01/25 06:03:53;;;;;;;36.90;8.52;;;;;;;3.64;100.00;102880.28;5022333;28;20112;-65
2024/01/25 06:06:18;;;;;;;41.80;7.75;;;;;;;3.63;100.00;102882.94;5017142;28;20041;-64
2024/01/25 06:08:43;;;;;;;37.88;7.85;;;;;;;3.61;100.00;102875.06;5021094;28;20045;-65
2024/01/25 06:11:09;;;;;;;28.38;7.53;;;;;;;3.59;100.00;102873.38;5021947;28;20033;-64
2024/01/25 06:13:34;;;;;;;40.53;8.25;;;;;;;3.57;100.00;102870.78;5022500;28;20022;-64
2024/01/25 06:16:00;;;;;;;29.88;6.90;;;;;;;3.55;100.00;102877.81;5019328;28;20487;-64
2024/01/25 06:18:26;;;;;;;32.40;7.10;;;;;;;3.55;100.00;102884.81;5022193;28;20026;-65
2024/01/25 06:20:51;;;;;;;38.47;7.40;;;;;;;3.56;100.00;102879.53;5020079;28;20029;-65
2024/01/25 06:23:17;;;;;;;40.50;8.27;;;;;;;3.54;100.00;102873.44;5018442;28;20026;-65
2024/01/25 06:25:42;;;;;;;35.17;8.80;;;;;;;3.54;100.00;102888.34;5021511;28;20030;-64
2024/01/25 06:28:07;;;;;;;35.40;8.50;;;;;;;3.54;100.00;102898.84;5019851;28;20025;-64
2024/01/25 06:30:33;;;;;;;36.17;8.63;;;;;;;3.51;100.00;102899.75;5019937;28;20030;-64
2024/01/25 06:32:58;;;;;;;38.55;7.45;;;;;;;3.49;100.00;102904.16;5010954;28;20025;-65
2024/01/25 06:35:23;;;;;;;42.15;8.88;;;;;;;3.46;100.00;102910.31;5018100;28;20120;-65
2024/01/25 06:37:49;;;;;;;35.45;7.38;;;;;;;3.45;100.00;102900.72;5015646;28;20044;-65
2024/01/25 06:40:14;;;;;;;32.10;7.40;;;;;;;3.43;100.00;102896.34;5018850;28;20030;-65
2024/01/25 06:42:39;;;;;;;40.97;7.53;;;;;;;3.40;100.00;102884.16;5015894;28;20037;-65
2024/01/25 06:45:05;;;;;;;29.73;7.53;;;;;;;3.40;100.00;102889.41;5019732;28;20095;-65
2024/01/25 06:47:30;;;;;;;34.75;8.13;;;;;;;3.40;100.00;102901.66;5016849;28;20025;-65
2024/01/25 06:49:55;;;;;;;36.47;9.00;;;;;;;3.38;100.00;102904.31;5018887;28;20084;-65
2024/01/25 06:52:21;;;;;;;38.60;8.23;;;;;;;3.36;100.00;102895.56;5014773;28;20120;-65
2024/01/25 06:54:46;;;;;;;33.38;8.10;;;;;;;3.34;100.00;102898.22;5018564;28;20120;-64
2024/01/25 06:57:11;;;;;;;41.28;8.63;;;;;;;3.32;100.00;102891.25;5018574;28;20018;-64
2024/01/25 06:59:37;;;;;;;36.95;8.98;;;;;;;3.29;100.00;102897.41;5015398;28;20026;-65
2024/01/25 07:02:03;;;;;;;38.13;8.73;;;;;;;3.29;100.00;102899.19;5017766;28;20025;-65
2024/01/25 07:04:29;;;;;;;36.03;8.60;;;;;;;3.27;100.00;102895.72;5012286;28;20507;-64
2024/01/25 07:06:55;;;;;;;38.78;8.50;;;;;;;3.26;100.00;102902.69;5017522;28;20515;-64
2024/01/25 07:09:20;;;;;;;33.08;8.63;;;;;;;3.25;100.00;102908.00;5004370;28;20034;-64
2024/01/25 07:11:45;;;;;;;40.75;8.18;;;;;;;3.25;100.00;102905.38;5012736;28;20037;-65
2024/01/25 07:14:11;;;;;;;30.50;7.70;;;;;;;3.24;100.00;102891.34;5017363;28;20034;-65
2024/01/25 07:16:36;;;;;;;38.38;8.75;;;;;;;3.21;100.00;102891.38;5016058;28;20037;-65
2024/01/25 07:19:01;;;;;;;37.58;8.65;;;;;;;3.21;100.00;102901.91;5014025;28;20091;-66
2024/01/25 07:21:26;;;;;;;38.55;8.57;;;;;;;3.19;100.00;102901.06;5011619;28;20647;-65
2024/01/25 07:23:52;;;;;;;40.13;8.75;;;;;;;3.20;100.00;102907.16;5017398;28;20032;-65
2024/01/25 07:26:18;;;;;;;35.63;7.97;;;;;;;3.16;100.00;102911.59;5011867;28;20075;-65
2024/01/25 07:28:43;;;;;;;40.78;8.88;;;;;;;3.13;100.00;102915.13;5017794;28;20116;-65
2024/01/25 07:31:09;;;;;;;44.45;9.63;;;;;;;3.10;100.00;102911.69;5017362;28;20176;-65
2024/01/25 07:33:35;;;;;;;33.08;8.63;;;;;;;3.08;100.00;102910.81;5049657;28;20360;-65
2024/01/25 07:36:00;;;;;;;40.92;10.27;;;;;;;3.06;100.00;102915.22;5017275;28;20030;-65
2024/01/25 07:38:25;;;;;;;41.55;9.13;;;;;;;3.07;100.00;102916.97;5014808;28;20411;-65
2024/01/25 07:40:52;;;;;;;37.97;8.82;;;;;;;3.07;100.00;102916.97;5013628;28;20076;-64
2024/01/25 07:43:17;;;;;;;36.75;8.30;;;;;;;3.07;100.00;102912.56;5010375;28;20018;-65
2024/01/25 07:45:42;;;;;;;46.20;8.95;;;;;;;3.06;100.00;102918.69;5011179;28;20041;-65
2024/01/25 07:48:08;;;;;;;43.05;8.25;;;;;;;3.05;100.00;102916.97;5014401;28;20134;-65
2024/01/25 07:50:33;;;;;;;39.40;9.02;;;;;;;3.07;100.00;102915.19;5010360;28;20041;-65
2024/01/25 07:53:00;;;;;;;53.22;10.48;;;;;;;3.08;100.00;102916.94;5014855;28;20384;-64
2024/01/25 07:55:26;;;;;;;40.65;9.23;;;;;;;3.08;100.00;102909.06;5012784;28;20036;-65
2024/01/25 07:57:51;;;;;;;41.97;8.82;;;;;;;3.12;100.00;102909.91;5018449;28;20100;-65
2024/01/25 08:00:17;;;;;;;42.08;10.00;;;;;;;3.11;100.00;102903.78;5017931;28;20017;-65
2024/01/25 08:02:44;;;;;;;40.10;9.38;;;;;;;3.12;100.00;102913.38;5018178;28;20026;-65
2024/01/25 08:05:11;;;;;;;44.53;10.43;;;;;;;3.14;100.00;102916.84;5013623;28;20455;-65
2024/01/25 08:07:37;;;;;;;49.03;10.75;;;;;;;3.15;100.00;102917.75;5020339;28;20018;-64
2024/01/25 08:10:04;;;;;;;42.28;10.40;;;;;;;3.16;100.00;102922.09;5018261;28;20018;-65
2024/01/25 08:12:29;;;;;;;40.25;9.93;;;;;;;3.18;100.00;102917.72;5011527;28;20030;-65
2024/01/25 08:14:55;;;;;;;39.85;10.73;;;;;;;3.20;100.00;102921.19;5018237;28;20091;-65
2024/01/25 08:17:20;;;;;;;45.97;10.63;;;;;;;3.22;100.00;102926.41;5015756;28;20026;-65
2024/01/25 08:19:46;;;;;;;38.30;9.25;;;;;;;3.25;100.00;102936.88;5020453;28;20364;-65
2024/01/25 08:22:11;;;;;;;47.17;10.90;;;;;;;3.29;100.00;102943.81;5016039;28;20087;-65
2024/01/25 08:24:38;;;;;;;39.50;11.23;;;;;;;3.30;100.00;102935.06;5013091;28;20120;-65
2024/01/25 08:27:04;;;;;;;39.08;11.35;;;;;;;3.34;100.00;102921.00;5018273;28;20022;-64
2024/01/25 08:29:30;;;;;;;39.25;10.98;;;;;;;3.38;100.00;102896.44;5014962;28;20485;-64
2024/01/25 08:31:55;;;;;;;39.58;12.32;;;;;;;3.42;100.00;102884.13;5017528;28;20525;-65
2024/01/25 08:34:21;;;;;;;43.80;11.40;;;;;;;3.43;100.00;102884.13;5016918;28;20224;-65
2024/01/25 08:36:46;;;;;;;42.30;11.80;;;;;;;3.50;100.00;102903.28;5012217;28;20038;-65
2024/01/25 08:39:12;;;;;;;37.05;11.43;;;;;;;3.52;100.00;102901.50;5020168;28;20036;-64
2024/01/25 08:41:37;;;;;;;35.03;10.60;;;;;;;3.57;100.00;102906.69;5014883;28;20109;-65
2024/01/25 08:44:03;;;;;;;41.28;13.63;;;;;;;3.59;100.00;102916.28;5018658;28;20434;-64
2024/01/25 08:46:28;;;;;;;36.15;12.57;;;;;;;3.62;100.00;102928.53;5020426;28;20376;-65
2024/01/25 08:48:53;;;;;;;46.45;13.50;;;;;;;3.66;100.00;102930.19;5021389;28;20029;-65
2024/01/25 08:51:19;;;;;;;51.83;13.35;;;;;;;3.69;100.00;102932.78;5018135;28;20105;-64
2024/01/25 08:53:44;;;;;;;43.45;14.52;;;;;;;3.73;100.00;102937.13;5019030;28;20088;-64
2024/01/25 08:56:09;;;;;;;44.30;15.38;;;;;;;3.76;100.00;102926.53;5017510;28;20132;-64
2024/01/25 08:58:35;;;;;;;35.75;14.38;;;;;;;3.79;100.00;102917.75;5014879;28;20501;-64
2024/01/25 09:01:00;;;;;;;39.45;15.20;;;;;;;3.82;100.00;102922.97;5019140;28;20490;-64
2024/01/25 09:03:26;;;;;;;40.50;15.38;;;;;;;3.86;100.00;102927.28;5017494;28;20026;-65
2024/01/25 09:05:51;;;;;;;42.58;16.92;;;;;;;3.91;100.00;102916.72;5019822;28;20030;-65
2024/01/25 09:08:16;;;;;;;41.53;16.40;;;;;;;3.95;100.00;102921.03;5020823;28;20121;-65
2024/01/25 09:10:42;;;;;;;39.75;15.02;;;;;;;3.99;100.00;102925.34;5022228;28;20544;-65
2024/01/25 09:13:08;;;;;;;34.90;15.85;;;;;;;4.03;100.00;102932.28;5020924;28;20022;-65
2024/01/25 09:15:34;;;;;;;43.00;17.25;;;;;;;4.07;100.00;102926.09;5024009;28;20100;-64
2024/01/25 09:17:59;;;;;;;43.42;16.85;;;;;;;4.12;100.00;102931.28;5021615;28;20093;-65
2024/01/25 09:20:25;;;;;;;40.58;16.13;;;;;;;4.16;100.00;102933.81;5023204;28;20076;-64
2024/01/25 09:22:50;;;;;;;38.85;16.80;;;;;;;4.22;100.00;102935.50;5021510;28;20075;-64
2024/01/25 09:25:16;;;;;;;39.60;16.50;;;;;;;4.26;100.00;102927.53;5021517;28;20117;-64
2024/01/25 09:27:41;;;;;;;42.47;16.08;;;;;;;4.34;100.00;102926.53;5018363;28;20525;-65
2024/01/25 09:30:07;;;;;;;47.38;17.63;;;;;;;4.39;100.00;102919.44;5022687;28;20037;-65
2024/01/25 09:32:32;;;;;;;44.65;18.65;;;;;;;4.44;100.00;102931.59;5019770;28;20378;-65
2024/01/25 09:34:58;;;;;;;41.55;18.23;;;;;;;4.52;100.00;102933.25;5019813;28;20030;-64
2024/01/25 09:37:24;;;;;;;44.42;19.20;;;;;;;4.59;100.00;102937.50;5019032;28;20048;-65
2024/01/25 09:39:53;;;;;;;45.10;18.52;;;;;;;4.67;100.00;102926.84;5020574;28;20049;-65
2024/01/25 09:42:18;;;;;;;47.60;18.85;;;;;;;4.72;100.00;102919.72;5018293;28;20074;-65
2024/01/25 09:44:44;;;;;;;44.40;19.52;;;;;;;4.78;100.00;102930.13;5019987;28;20061;-65
2024/01/25 09:47:10;;;;;;;41.15;18.63;;;;;;;4.83;100.00;102933.56;5013481;28;20034;-65
2024/01/25 09:49:36;;;;;;;50.67;20.17;;;;;;;4.87;100.00;102942.28;5018712;28;20471;-65
2024/01/25 09:52:03;;;;;;;41.78;17.75;;;;;;;4.91;100.00;102942.19;5018263;28;20010;-65
2024/01/25 09:54:35;;;;;;;44.38;17.30;;;;;;;4.96;100.00;102945.59;5023557;28;20872;-65
2024/01/25 09:57:08;;;;;;;39.92;18.17;;;;;;;4.99;100.00;102940.25;5022028;28;20037;-65
2024/01/25 09:59:33;;;;;;;39.08;17.33;;;;;;;5.05;100.00;102925.25;5014300;28;20475;-65
2024/01/25 10:02:01;;;;;;;36.15;16.60;;;;;;;5.05;100.00;102920.00;5018372;28;20037;-65
2024/01/25 10:04:26;;;;;;;35.38;16.00;;;;;;;5.09;100.00;102922.50;5020534;28;20111;-65
2024/01/25 10:06:56;;;;;;;36.05;16.38;;;;;;;5.13;100.00;102916.28;5016933;28;20017;-65
2024/01/25 10:09:21;;;;;;;;;;;;;;;5.21;100.00;102910.84;5020485;28;20040;-65
2024/01/25 10:11:46;;;;;;;33.37;16.43;;;;;;;5.24;100.00;102915.19;5017949;28;19921;-65
2024/01/25 10:14:11;;;;;;;38.28;17.60;;;;;;;5.28;100.00;102899.31;5019425;28;20079;-64
2024/01/25 10:16:37;;;;;;;42.45;18.05;;;;;;;5.35;100.00;102916.72;5015255;28;20030;-64
2024/01/25 10:19:06;;;;;;;43.15;17.48;;;;;;;5.40;100.00;102907.84;5018832;28;20022;-64
2024/01/25 10:21:31;;;;;;;45.60;17.42;;;;;;;5.45;100.00;102901.56;5017415;28;20041;-64
2024/01/25 10:23:58;;;;;;;51.17;18.50;;;;;;;5.48;100.00;102906.78;5015787;28;20072;-65
2024/01/25 10:26:28;;;;;;;45.58;18.38;;;;;;;5.53;100.00;102907.53;5016771;28;20125;-64
2024/01/25 10:28:53;;;;;;;48.00;18.17;;;;;;;5.59;100.00;102903.03;5017339;28;20037;-64
2024/01/25 10:31:19;;;;;;;39.40;17.20;;;;;;;5.65;100.00;102895.84;5016043;28;20030;-64
2024/01/25 10:33:45;;;;;;;54.53;17.65;;;;;;;5.70;100.00;102880.78;5016947;28;20391;-64
2024/01/25 10:36:11;;;;;;;48.28;17.92;;;;;;;5.77;100.00;102881.50;5015131;28;20061;-65
2024/01/25 10:38:37;;;;;;;46.30;18.08;;;;;;;5.83;100.00;102885.75;5022094;28;20044;-65
2024/01/25 10:41:04;;;;;;;51.47;18.67;;;;;;;5.87;100.00;102876.88;5018518;28;20014;-65
2024/01/25 10:43:30;;;;;;;50.25;18.30;;;;;;;5.95;100.00;102874.94;5016273;28;20061;-65
2024/01/25 10:45:57;;;;;;;52.55;18.05;;;;;;;6.00;100.00;102873.06;5014420;28;20109;-65
2024/01/25 10:48:23;;;;;;;65.50;18.17;;;;;;;6.05;100.00;102860.63;5017623;28;20076;-65
2024/01/25 10:50:48;;;;;;;49.53;17.17;;;;;;;6.11;100.00;102862.25;5017437;28;20038;-65
2024/01/25 10:53:15;;;;;;;58.63;18.05;;;;;;;6.17;100.00;102850.69;5018408;28;20430;-65
2024/01/25 10:55:41;;;;;;;51.97;17.65;;;;;;;6.22;100.00;102867.25;5017942;28;20364;-65
2024/01/25 10:58:08;;;;;;;43.33;16.27;;;;;;;6.28;100.00;102865.31;5021668;28;20037;-65
2024/01/25 11:00:34;;;;;;;58.13;15.93;;;;;;;6.33;100.00;102859.94;5016034;28;20026;-65
2024/01/25 11:03:01;;;;;;;49.78;15.52;;;;;;;6.35;100.00;102860.75;5015327;28;20022;-65
2024/01/25 11:05:27;;;;;;;57.22;16.20;;;;;;;6.40;100.00;102865.91;5012478;28;20026;-64
2024/01/25 11:07:52;;;;;;;53.15;15.63;;;;;;;6.43;100.00;102861.41;5021971;28;20032;-65